Terminal Aerodrome Forecast
Issued by NWS Cleveland, OH

Home | Current Version | Previous Version | Text Only | Print | Product List | Glossary On
Versions: 1 2 3 4 5 6 7 8 9 10 11 12 13 14 15 16 17 18 19 20 21 22 23 24 25 26
641
FTUS41 KCLE 230412 AAB
TAFTOL
TAF AMD
KTOL 230412Z 2304/2324 20008KT 5SM BR SCT020
     FM230800 22008KT 4SM BR BKN012
     FM231400 26006KT P6SM OVC015
     FM231800 30006KT P6SM BKN025
     FM232100 35006KT P6SM BKN045=

USA.gov is the U.S. government's official web portal to all federal, state and local government web resources and services.